Madison, WI

6:17 AM CDT on September 03, 2015 (GMT -0500)
Dane County Regional-Truax | | Change Station
CLOSE
Current Station
Airport
Location: Madison,
Elevation: 866 ft
Nearby Weather Stations

Elev 866 ft 43.14 °N, 89.35 °W | Updated 24 minutes ago

Scattered Clouds
Scattered Clouds
72 °F
Feels Like 72 °F
N
0
Wind Variable Wind from North

Today
High -- | Low -- °F
--% Chance of Precip.
Yesterday
High -- | Low -- °F
Precip. -- in
6:23 AM 7:29 PM
Waning Gibbous, 71% visible
Pressure 29.90 in
Visibility 9.0 miles
Clouds Scattered Clouds 10000 ft
Dew Point 67 °F
Humidity 84%
Rainfall 0.00 in
Snow Depth Not available.
UV 0 out of 12
Pollen 4.80 out of 12
Air Quality Not available.
Flu Activity Not available.
METAR KMSN 031053Z 00000KT 9SM SCT100 22/19 A2992 RMK AO2 SLP124 FIRST AUGMENTED OBS OF THE DAY T02220194
Pressure 29.90 in
Visibility 9.0 miles
Clouds Scattered Clouds 10000 ft
Dew Point 67 °F
Humidity 84%
Rainfall 0.00 in
Snow Depth Not available.
UV 0 out of 12
Pollen 4.80 out of 12
Air Quality Not available.
Flu Activity Not available.
METAR KMSN 031053Z 00000KT 9SM SCT100 22/19 A2992 RMK AO2 SLP124 FIRST AUGMENTED OBS OF THE DAY T02220194

10-Day Weather Forecast

×

Almanac

Astronomy

Sep. 03, 2015 Rise Set
Actual Time
Civil Twilight
Nautical Twilight
Astronomical Twilight
Moon
Length of Visible Light
Length of Day
Tomorrow will be .
, % of the Moon is Illuminated

Today's Extremes

State Highs State Lows

Community

WunderPhotos

Upload Photos

1,851,933 photos uploaded!

WunderBlogs® & News

Nearby

Air Quality

  Air Quality AQ Index Pollutant
Not available.

Snow Depth

Station Depth Elevation

Earthquake Activity

City Distance Mag. Time & Date
Minimum magnitude displayed is 2.5.

Coastal Water Temperatures

Place Temperature

Stations

Nearby Weather Stations

Station Location Temp. Windchill Dew Point Humidity Wind Precip. Elev Updated Type